sensor_id;sensor_type;location;lat;lon;timestamp;P1;durP1;ratioP1;P2;durP2;ratioP2
23684;SDS011;12020;51.384;6.908;2023-04-24T00:01:56;1.90;;;0.95;;
23684;SDS011;12020;51.384;6.908;2023-04-24T00:04:23;2.20;;;0.95;;
23684;SDS011;12020;51.384;6.908;2023-04-24T00:06:51;1.23;;;0.82;;
23684;SDS011;12020;51.384;6.908;2023-04-24T00:09:19;1.42;;;0.93;;
23684;SDS011;12020;51.384;6.908;2023-04-24T00:11:46;3.17;;;1.05;;
23684;SDS011;12020;51.384;6.908;2023-04-24T00:14:12;1.55;;;1.30;;
23684;SDS011;12020;51.384;6.908;2023-04-24T00:16:38;1.48;;;1.10;;
23684;SDS011;12020;51.384;6.908;2023-04-24T00:19:05;1.92;;;1.25;;
23684;SDS011;12020;51.384;6.908;2023-04-24T00:21:32;1.50;;;1.15;;
23684;SDS011;12020;51.384;6.908;2023-04-24T00:23:58;2.35;;;1.40;;
23684;SDS011;12020;51.384;6.908;2023-04-24T00:26:24;3.65;;;1.23;;
23684;SDS011;12020;51.384;6.908;2023-04-24T00:28:50;1.57;;;1.30;;
23684;SDS011;12020;51.384;6.908;2023-04-24T00:31:16;1.33;;;1.07;;
23684;SDS011;12020;51.384;6.908;2023-04-24T00:33:42;1.98;;;1.30;;
23684;SDS011;12020;51.384;6.908;2023-04-24T00:36:08;1.20;;;1.10;;
23684;SDS011;12020;51.384;6.908;2023-04-24T00:38:34;1.33;;;1.20;;
23684;SDS011;12020;51.384;6.908;2023-04-24T00:41:00;1.73;;;1.10;;
23684;SDS011;12020;51.384;6.908;2023-04-24T00:43:26;1.77;;;1.27;;
23684;SDS011;12020;51.384;6.908;2023-04-24T00:45:57;1.20;;;1.10;;
23684;SDS011;12020;51.384;6.908;2023-04-24T00:48:26;1.65;;;1.40;;
23684;SDS011;12020;51.384;6.908;2023-04-24T00:50:53;1.98;;;1.52;;
23684;SDS011;12020;51.384;6.908;2023-04-24T00:53:19;2.10;;;1.40;;
23684;SDS011;12020;51.384;6.908;2023-04-24T00:55:44;2.13;;;1.30;;
23684;SDS011;12020;51.384;6.908;2023-04-24T00:58:11;1.60;;;1.42;;
23684;SDS011;12020;51.384;6.908;2023-04-24T01:00:38;1.70;;;1.50;;
23684;SDS011;12020;51.384;6.908;2023-04-24T01:03:05;1.85;;;1.55;;
23684;SDS011;12020;51.384;6.908;2023-04-24T01:05:32;2.47;;;1.50;;
23684;SDS011;12020;51.384;6.908;2023-04-24T01:07:59;2.03;;;1.60;;
23684;SDS011;12020;51.384;6.908;2023-04-24T01:10:26;2.10;;;1.90;;
23684;SDS011;12020;51.384;6.908;2023-04-24T01:12:55;1.95;;;1.70;;
23684;SDS011;12020;51.384;6.908;2023-04-24T01:15:21;2.47;;;2.00;;
23684;SDS011;12020;51.384;6.908;2023-04-24T01:17:47;2.90;;;2.13;;
23684;SDS011;12020;51.384;6.908;2023-04-24T01:20:14;3.15;;;2.20;;
23684;SDS011;12020;51.384;6.908;2023-04-24T01:22:40;3.17;;;2.50;;
23684;SDS011;12020;51.384;6.908;2023-04-24T01:25:07;2.83;;;2.50;;
23684;SDS011;12020;51.384;6.908;2023-04-24T01:27:34;3.40;;;3.00;;
23684;SDS011;12020;51.384;6.908;2023-04-24T01:30:00;3.43;;;3.13;;
23684;SDS011;12020;51.384;6.908;2023-04-24T01:32:26;4.03;;;3.20;;
23684;SDS011;12020;51.384;6.908;2023-04-24T01:34:53;4.23;;;3.40;;
23684;SDS011;12020;51.384;6.908;2023-04-24T01:37:20;3.85;;;3.13;;
23684;SDS011;12020;51.384;6.908;2023-04-24T01:39:46;4.18;;;3.00;;
23684;SDS011;12020;51.384;6.908;2023-04-24T01:42:12;3.63;;;3.00;;
23684;SDS011;12020;51.384;6.908;2023-04-24T01:44:40;3.08;;;2.67;;
23684;SDS011;12020;51.384;6.908;2023-04-24T01:47:06;3.57;;;3.27;;
23684;SDS011;12020;51.384;6.908;2023-04-24T01:49:32;3.53;;;3.23;;
23684;SDS011;12020;51.384;6.908;2023-04-24T01:51:58;4.50;;;3.70;;
23684;SDS011;12020;51.384;6.908;2023-04-24T01:54:24;5.20;;;4.70;;
23684;SDS011;12020;51.384;6.908;2023-04-24T01:56:51;5.13;;;4.57;;
23684;SDS011;12020;51.384;6.908;2023-04-24T01:59:17;5.20;;;4.70;;
23684;SDS011;12020;51.384;6.908;2023-04-24T02:01:44;6.15;;;4.40;;
23684;SDS011;12020;51.384;6.908;2023-04-24T02:04:11;6.90;;;4.65;;
23684;SDS011;12020;51.384;6.908;2023-04-24T02:06:44;6.55;;;4.90;;
23684;SDS011;12020;51.384;6.908;2023-04-24T02:09:10;6.93;;;5.20;;
23684;SDS011;12020;51.384;6.908;2023-04-24T02:11:37;7.70;;;5.63;;
23684;SDS011;12020;51.384;6.908;2023-04-24T02:14:03;6.80;;;6.00;;
23684;SDS011;12020;51.384;6.908;2023-04-24T02:16:29;6.63;;;5.93;;
23684;SDS011;12020;51.384;6.908;2023-04-24T02:18:57;7.53;;;6.72;;
23684;SDS011;12020;51.384;6.908;2023-04-24T02:21:24;7.43;;;6.50;;
23684;SDS011;12020;51.384;6.908;2023-04-24T02:23:50;7.35;;;6.57;;
23684;SDS011;12020;51.384;6.908;2023-04-24T02:26:17;8.50;;;7.25;;
23684;SDS011;12020;51.384;6.908;2023-04-24T02:28:43;8.25;;;7.35;;
23684;SDS011;12020;51.384;6.908;2023-04-24T02:31:09;7.95;;;6.60;;
23684;SDS011;12020;51.384;6.908;2023-04-24T02:33:34;8.68;;;7.78;;
23684;SDS011;12020;51.384;6.908;2023-04-24T02:36:01;10.90;;;7.95;;
23684;SDS011;12020;51.384;6.908;2023-04-24T02:38:28;8.63;;;7.30;;
23684;SDS011;12020;51.384;6.908;2023-04-24T02:40:55;9.93;;;8.43;;
23684;SDS011;12020;51.384;6.908;2023-04-24T02:43:22;8.83;;;8.03;;
23684;SDS011;12020;51.384;6.908;2023-04-24T02:45:47;9.70;;;7.87;;
23684;SDS011;12020;51.384;6.908;2023-04-24T02:48:13;10.35;;;8.80;;
23684;SDS011;12020;51.384;6.908;2023-04-24T02:50:40;9.55;;;8.65;;
23684;SDS011;12020;51.384;6.908;2023-04-24T02:53:06;10.27;;;8.80;;
23684;SDS011;12020;51.384;6.908;2023-04-24T02:55:32;11.05;;;9.00;;
23684;SDS011;12020;51.384;6.908;2023-04-24T02:57:58;10.70;;;9.30;;
23684;SDS011;12020;51.384;6.908;2023-04-24T03:00:25;12.68;;;9.70;;
23684;SDS011;12020;51.384;6.908;2023-04-24T03:02:51;11.98;;;9.77;;
23684;SDS011;12020;51.384;6.908;2023-04-24T03:05:17;10.93;;;9.35;;
23684;SDS011;12020;51.384;6.908;2023-04-24T03:07:43;11.60;;;9.93;;
23684;SDS011;12020;51.384;6.908;2023-04-24T03:10:10;10.98;;;9.70;;
23684;SDS011;12020;51.384;6.908;2023-04-24T03:12:36;11.23;;;10.03;;
23684;SDS011;12020;51.384;6.908;2023-04-24T03:15:03;11.88;;;10.60;;
23684;SDS011;12020;51.384;6.908;2023-04-24T03:17:30;11.05;;;9.82;;
23684;SDS011;12020;51.384;6.908;2023-04-24T03:19:56;13.60;;;10.05;;
23684;SDS011;12020;51.384;6.908;2023-04-24T03:22:23;11.70;;;10.03;;
23684;SDS011;12020;51.384;6.908;2023-04-24T03:24:48;12.30;;;10.70;;
23684;SDS011;12020;51.384;6.908;2023-04-24T03:27:15;11.95;;;10.60;;
23684;SDS011;12020;51.384;6.908;2023-04-24T03:29:41;11.87;;;10.47;;
23684;SDS011;12020;51.384;6.908;2023-04-24T03:32:09;12.47;;;10.77;;
23684;SDS011;12020;51.384;6.908;2023-04-24T03:34:36;13.63;;;11.02;;
23684;SDS011;12020;51.384;6.908;2023-04-24T03:37:01;12.10;;;10.25;;
23684;SDS011;12020;51.384;6.908;2023-04-24T03:39:27;12.32;;;10.77;;
23684;SDS011;12020;51.384;6.908;2023-04-24T03:41:53;11.50;;;10.27;;
23684;SDS011;12020;51.384;6.908;2023-04-24T03:44:19;11.93;;;10.73;;
23684;SDS011;12020;51.384;6.908;2023-04-24T03:46:45;11.67;;;10.47;;
23684;SDS011;12020;51.384;6.908;2023-04-24T03:49:12;11.20;;;10.07;;
23684;SDS011;12020;51.384;6.908;2023-04-24T03:51:38;11.30;;;10.00;;
23684;SDS011;12020;51.384;6.908;2023-04-24T03:54:04;13.20;;;10.68;;
23684;SDS011;12020;51.384;6.908;2023-04-24T03:56:31;10.52;;;9.38;;
23684;SDS011;12020;51.384;6.908;2023-04-24T03:58:57;12.93;;;9.63;;
23684;SDS011;12020;51.384;6.908;2023-04-24T04:01:23;11.77;;;9.93;;
23684;SDS011;12020;51.384;6.908;2023-04-24T04:03:49;10.88;;;9.63;;
23684;SDS011;12020;51.384;6.908;2023-04-24T04:06:16;10.77;;;9.63;;
23684;SDS011;12020;51.384;6.908;2023-04-24T04:08:44;10.38;;;9.27;;
23684;SDS011;12020;51.384;6.908;2023-04-24T04:11:10;12.05;;;9.68;;
23684;SDS011;12020;51.384;6.908;2023-04-24T04:13:36;10.27;;;9.27;;
23684;SDS011;12020;51.384;6.908;2023-04-24T04:16:02;11.60;;;9.93;;
23684;SDS011;12020;51.384;6.908;2023-04-24T04:18:27;10.82;;;9.73;;
23684;SDS011;12020;51.384;6.908;2023-04-24T04:20:54;10.83;;;9.50;;
23684;SDS011;12020;51.384;6.908;2023-04-24T04:23:19;12.10;;;9.80;;
23684;SDS011;12020;51.384;6.908;2023-04-24T04:25:46;11.55;;;9.80;;
23684;SDS011;12020;51.384;6.908;2023-04-24T04:28:12;11.05;;;9.90;;
23684;SDS011;12020;51.384;6.908;2023-04-24T04:30:39;10.73;;;9.53;;
23684;SDS011;12020;51.384;6.908;2023-04-24T04:33:12;12.55;;;9.77;;
23684;SDS011;12020;51.384;6.908;2023-04-24T04:35:39;10.55;;;9.23;;
23684;SDS011;12020;51.384;6.908;2023-04-24T04:38:06;10.40;;;9.30;;
23684;SDS011;12020;51.384;6.908;2023-04-24T04:40:33;10.77;;;9.48;;
23684;SDS011;12020;51.384;6.908;2023-04-24T04:42:59;12.02;;;9.68;;
23684;SDS011;12020;51.384;6.908;2023-04-24T04:45:26;11.38;;;10.13;;
23684;SDS011;12020;51.384;6.908;2023-04-24T04:47:52;10.65;;;9.25;;
23684;SDS011;12020;51.384;6.908;2023-04-24T04:50:17;10.52;;;9.35;;
23684;SDS011;12020;51.384;6.908;2023-04-24T04:52:45;10.20;;;9.13;;
23684;SDS011;12020;51.384;6.908;2023-04-24T04:55:11;11.00;;;8.73;;
23684;SDS011;12020;51.384;6.908;2023-04-24T04:57:39;10.95;;;8.95;;
23684;SDS011;12020;51.384;6.908;2023-04-24T05:00:05;9.55;;;8.55;;
23684;SDS011;12020;51.384;6.908;2023-04-24T05:02:35;9.40;;;8.27;;
23684;SDS011;12020;51.384;6.908;2023-04-24T05:05:02;9.25;;;8.35;;
23684;SDS011;12020;51.384;6.908;2023-04-24T05:07:28;9.30;;;8.30;;
23684;SDS011;12020;51.384;6.908;2023-04-24T05:09:54;9.68;;;8.45;;
23684;SDS011;12020;51.384;6.908;2023-04-24T05:12:21;10.77;;;8.40;;
23684;SDS011;12020;51.384;6.908;2023-04-24T05:14:47;9.50;;;8.50;;
23684;SDS011;12020;51.384;6.908;2023-04-24T05:17:13;9.23;;;7.88;;
23684;SDS011;12020;51.384;6.908;2023-04-24T05:19:41;9.63;;;8.43;;
23684;SDS011;12020;51.384;6.908;2023-04-24T05:22:08;9.52;;;8.52;;
23684;SDS011;12020;51.384;6.908;2023-04-24T05:24:35;10.05;;;8.77;;
23684;SDS011;12020;51.384;6.908;2023-04-24T05:27:02;12.75;;;9.25;;
23684;SDS011;12020;51.384;6.908;2023-04-24T05:29:29;10.38;;;9.30;;
23684;SDS011;12020;51.384;6.908;2023-04-24T05:31:57;10.02;;;9.13;;
23684;SDS011;12020;51.384;6.908;2023-04-24T05:36:53;11.60;;;10.00;;
23684;SDS011;12020;51.384;6.908;2023-04-24T05:39:20;11.45;;;9.68;;
23684;SDS011;12020;51.384;6.908;2023-04-24T05:41:46;11.48;;;9.68;;
23684;SDS011;12020;51.384;6.908;2023-04-24T05:44:11;11.30;;;9.60;;
23684;SDS011;12020;51.384;6.908;2023-04-24T05:46:38;10.57;;;9.45;;
23684;SDS011;12020;51.384;6.908;2023-04-24T05:49:04;10.77;;;9.68;;
23684;SDS011;12020;51.384;6.908;2023-04-24T05:51:30;10.20;;;9.07;;
23684;SDS011;12020;51.384;6.908;2023-04-24T05:53:57;9.98;;;8.98;;
23684;SDS011;12020;51.384;6.908;2023-04-24T05:56:23;11.02;;;9.13;;
23684;SDS011;12020;51.384;6.908;2023-04-24T05:58:49;10.30;;;9.20;;
23684;SDS011;12020;51.384;6.908;2023-04-24T06:01:15;8.88;;;7.97;;
23684;SDS011;12020;51.384;6.908;2023-04-24T06:03:41;8.73;;;7.93;;
23684;SDS011;12020;51.384;6.908;2023-04-24T06:06:07;8.90;;;7.90;;
23684;SDS011;12020;51.384;6.908;2023-04-24T06:08:33;8.77;;;7.90;;
23684;SDS011;12020;51.384;6.908;2023-04-24T06:11:00;8.73;;;7.82;;
23684;SDS011;12020;51.384;6.908;2023-04-24T06:13:26;7.90;;;7.10;;
23684;SDS011;12020;51.384;6.908;2023-04-24T06:15:52;9.50;;;8.20;;
23684;SDS011;12020;51.384;6.908;2023-04-24T06:18:20;8.20;;;7.40;;
23684;SDS011;12020;51.384;6.908;2023-04-24T06:20:46;9.07;;;8.07;;
23684;SDS011;12020;51.384;6.908;2023-04-24T06:23:12;9.00;;;8.10;;
23684;SDS011;12020;51.384;6.908;2023-04-24T06:25:38;8.70;;;7.80;;
23684;SDS011;12020;51.384;6.908;2023-04-24T06:28:04;9.68;;;8.20;;
23684;SDS011;12020;51.384;6.908;2023-04-24T06:30:30;8.63;;;7.80;;
23684;SDS011;12020;51.384;6.908;2023-04-24T06:32:56;10.02;;;8.18;;
23684;SDS011;12020;51.384;6.908;2023-04-24T06:35:22;9.13;;;8.23;;
23684;SDS011;12020;51.384;6.908;2023-04-24T06:37:51;8.50;;;7.70;;
23684;SDS011;12020;51.384;6.908;2023-04-24T06:40:16;9.00;;;8.10;;
23684;SDS011;12020;51.384;6.908;2023-04-24T06:42:43;8.52;;;7.57;;
23684;SDS011;12020;51.384;6.908;2023-04-24T06:45:09;8.30;;;7.40;;
23684;SDS011;12020;51.384;6.908;2023-04-24T06:47:35;8.45;;;7.57;;
23684;SDS011;12020;51.384;6.908;2023-04-24T06:50:02;7.68;;;6.97;;
23684;SDS011;12020;51.384;6.908;2023-04-24T06:52:28;8.20;;;7.40;;
23684;SDS011;12020;51.384;6.908;2023-04-24T06:55:03;7.70;;;6.85;;
23684;SDS011;12020;51.384;6.908;2023-04-24T06:57:29;6.57;;;5.97;;
23684;SDS011;12020;51.384;6.908;2023-04-24T06:59:57;6.68;;;6.03;;
23684;SDS011;12020;51.384;6.908;2023-04-24T07:02:23;6.60;;;5.90;;
23684;SDS011;12020;51.384;6.908;2023-04-24T07:04:49;5.95;;;5.35;;
23684;SDS011;12020;51.384;6.908;2023-04-24T07:07:16;5.90;;;5.22;;
23684;SDS011;12020;51.384;6.908;2023-04-24T07:09:43;5.85;;;5.28;;
23684;SDS011;12020;51.384;6.908;2023-04-24T07:12:11;5.82;;;5.28;;
23684;SDS011;12020;51.384;6.908;2023-04-24T07:14:38;5.82;;;5.22;;
23684;SDS011;12020;51.384;6.908;2023-04-24T07:19:33;4.38;;;3.97;;
23684;SDS011;12020;51.384;6.908;2023-04-24T07:22:00;3.70;;;3.40;;
23684;SDS011;12020;51.384;6.908;2023-04-24T07:24:26;4.00;;;3.60;;
23684;SDS011;12020;51.384;6.908;2023-04-24T07:26:52;4.07;;;3.50;;
23684;SDS011;12020;51.384;6.908;2023-04-24T07:29:19;4.20;;;3.33;;
23684;SDS011;12020;51.384;6.908;2023-04-24T07:31:46;4.20;;;3.67;;
23684;SDS011;12020;51.384;6.908;2023-04-24T07:34:11;3.35;;;2.80;;
23684;SDS011;12020;51.384;6.908;2023-04-24T07:36:37;2.83;;;2.40;;
23684;SDS011;12020;51.384;6.908;2023-04-24T07:39:04;2.10;;;1.90;;
23684;SDS011;12020;51.384;6.908;2023-04-24T07:41:31;1.60;;;1.40;;
23684;SDS011;12020;51.384;6.908;2023-04-24T07:43:56;1.63;;;0.90;;
23684;SDS011;12020;51.384;6.908;2023-04-24T07:46:23;1.40;;;0.70;;
23684;SDS011;12020;51.384;6.908;2023-04-24T07:48:50;1.08;;;0.80;;
23684;SDS011;12020;51.384;6.908;2023-04-24T07:51:16;1.30;;;0.75;;
23684;SDS011;12020;51.384;6.908;2023-04-24T07:53:43;1.60;;;0.85;;
23684;SDS011;12020;51.384;6.908;2023-04-24T07:56:16;1.77;;;0.90;;
23684;SDS011;12020;51.384;6.908;2023-04-24T07:58:42;1.30;;;0.80;;
23684;SDS011;12020;51.384;6.908;2023-04-24T08:01:09;1.00;;;0.73;;
23684;SDS011;12020;51.384;6.908;2023-04-24T08:03:35;0.80;;;0.70;;
23684;SDS011;12020;51.384;6.908;2023-04-24T08:06:01;0.90;;;0.70;;
23684;SDS011;12020;51.384;6.908;2023-04-24T08:08:28;1.20;;;0.70;;
23684;SDS011;12020;51.384;6.908;2023-04-24T08:10:53;1.50;;;0.80;;
23684;SDS011;12020;51.384;6.908;2023-04-24T08:13:25;1.00;;;0.70;;
23684;SDS011;12020;51.384;6.908;2023-04-24T08:15:51;0.80;;;0.70;;
23684;SDS011;12020;51.384;6.908;2023-04-24T08:18:17;0.75;;;0.70;;
23684;SDS011;12020;51.384;6.908;2023-04-24T08:20:43;1.52;;;0.90;;
23684;SDS011;12020;51.384;6.908;2023-04-24T08:23:11;1.30;;;0.80;;
23684;SDS011;12020;51.384;6.908;2023-04-24T08:25:40;2.25;;;0.98;;
23684;SDS011;12020;51.384;6.908;2023-04-24T08:28:06;1.25;;;1.10;;
23684;SDS011;12020;51.384;6.908;2023-04-24T08:30:35;1.45;;;1.00;;
23684;SDS011;12020;51.384;6.908;2023-04-24T08:33:02;1.95;;;1.10;;
23684;SDS011;12020;51.384;6.908;2023-04-24T08:35:28;2.03;;;1.20;;
23684;SDS011;12020;51.384;6.908;2023-04-24T08:37:54;1.30;;;1.10;;
23684;SDS011;12020;51.384;6.908;2023-04-24T08:40:22;1.50;;;1.10;;
23684;SDS011;12020;51.384;6.908;2023-04-24T08:42:53;3.00;;;1.20;;
23684;SDS011;12020;51.384;6.908;2023-04-24T08:45:21;2.47;;;1.10;;
23684;SDS011;12020;51.384;6.908;2023-04-24T08:47:48;2.53;;;1.70;;
23684;SDS011;12020;51.384;6.908;2023-04-24T08:50:14;2.63;;;2.20;;
23684;SDS011;12020;51.384;6.908;2023-04-24T08:52:41;3.65;;;2.88;;
23684;SDS011;12020;51.384;6.908;2023-04-24T08:55:07;4.60;;;3.10;;
23684;SDS011;12020;51.384;6.908;2023-04-24T08:57:34;3.53;;;2.90;;
23684;SDS011;12020;51.384;6.908;2023-04-24T09:00:03;2.50;;;2.00;;
23684;SDS011;12020;51.384;6.908;2023-04-24T09:02:31;2.50;;;1.83;;
23684;SDS011;12020;51.384;6.908;2023-04-24T09:05:00;2.15;;;1.75;;
23684;SDS011;12020;51.384;6.908;2023-04-24T09:07:27;2.35;;;1.52;;
23684;SDS011;12020;51.384;6.908;2023-04-24T09:09:54;2.60;;;1.40;;
23684;SDS011;12020;51.384;6.908;2023-04-24T09:12:21;1.60;;;1.50;;
23684;SDS011;12020;51.384;6.908;2023-04-24T09:14:47;2.42;;;2.00;;
23684;SDS011;12020;51.384;6.908;2023-04-24T09:17:14;2.50;;;2.30;;
23684;SDS011;12020;51.384;6.908;2023-04-24T09:19:41;3.70;;;3.40;;
23684;SDS011;12020;51.384;6.908;2023-04-24T09:22:08;5.43;;;4.22;;
23684;SDS011;12020;51.384;6.908;2023-04-24T09:24:36;5.20;;;4.70;;
23684;SDS011;12020;51.384;6.908;2023-04-24T09:27:02;5.40;;;4.90;;
23684;SDS011;12020;51.384;6.908;2023-04-24T09:29:29;5.40;;;4.90;;
23684;SDS011;12020;51.384;6.908;2023-04-24T09:31:54;5.35;;;4.80;;
23684;SDS011;12020;51.384;6.908;2023-04-24T09:34:25;5.50;;;5.00;;
23684;SDS011;12020;51.384;6.908;2023-04-24T09:36:52;5.72;;;4.97;;
23684;SDS011;12020;51.384;6.908;2023-04-24T09:39:19;5.55;;;5.05;;
23684;SDS011;12020;51.384;6.908;2023-04-24T09:41:49;5.65;;;4.78;;
23684;SDS011;12020;51.384;6.908;2023-04-24T09:46:41;5.25;;;4.75;;
23684;SDS011;12020;51.384;6.908;2023-04-24T09:49:09;5.90;;;5.35;;
23684;SDS011;12020;51.384;6.908;2023-04-24T09:51:38;5.93;;;5.20;;
23684;SDS011;12020;51.384;6.908;2023-04-24T09:54:16;5.63;;;5.07;;
23684;SDS011;12020;51.384;6.908;2023-04-24T09:56:44;5.50;;;5.00;;
23684;SDS011;12020;51.384;6.908;2023-04-24T09:59:16;6.53;;;5.82;;
23684;SDS011;12020;51.384;6.908;2023-04-24T10:01:43;6.15;;;5.55;;
23684;SDS011;12020;51.384;6.908;2023-04-24T10:04:16;6.93;;;5.95;;
23684;SDS011;12020;51.384;6.908;2023-04-24T10:06:47;6.88;;;6.18;;
23684;SDS011;12020;51.384;6.908;2023-04-24T10:09:15;7.07;;;6.20;;
23684;SDS011;12020;51.384;6.908;2023-04-24T10:11:42;7.57;;;6.30;;
23684;SDS011;12020;51.384;6.908;2023-04-24T10:14:17;7.95;;;6.50;;
23684;SDS011;12020;51.384;6.908;2023-04-24T10:16:44;8.27;;;5.50;;
23684;SDS011;12020;51.384;6.908;2023-04-24T10:19:14;11.07;;;6.90;;
23684;SDS011;12020;51.384;6.908;2023-04-24T10:21:50;9.30;;;6.68;;
23684;SDS011;12020;51.384;6.908;2023-04-24T10:24:17;8.77;;;6.30;;
23684;SDS011;12020;51.384;6.908;2023-04-24T10:26:46;9.27;;;6.05;;
23684;SDS011;12020;51.384;6.908;2023-04-24T10:29:16;8.93;;;6.00;;
23684;SDS011;12020;51.384;6.908;2023-04-24T10:31:43;8.90;;;5.38;;
23684;SDS011;12020;51.384;6.908;2023-04-24T10:34:12;8.18;;;5.97;;
23684;SDS011;12020;51.384;6.908;2023-04-24T10:36:41;9.30;;;5.82;;
23684;SDS011;12020;51.384;6.908;2023-04-24T10:39:11;10.20;;;5.53;;
23684;SDS011;12020;51.384;6.908;2023-04-24T10:41:42;9.13;;;6.28;;
23684;SDS011;12020;51.384;6.908;2023-04-24T10:44:16;10.05;;;5.57;;
23684;SDS011;12020;51.384;6.908;2023-04-24T10:46:45;9.83;;;5.40;;
23684;SDS011;12020;51.384;6.908;2023-04-24T10:49:15;9.43;;;5.45;;
23684;SDS011;12020;51.384;6.908;2023-04-24T10:51:52;6.47;;;4.80;;
23684;SDS011;12020;51.384;6.908;2023-04-24T10:54:22;9.88;;;4.93;;
23684;SDS011;12020;51.384;6.908;2023-04-24T10:56:51;11.07;;;5.15;;
23684;SDS011;12020;51.384;6.908;2023-04-24T10:59:25;9.63;;;5.17;;
23684;SDS011;12020;51.384;6.908;2023-04-24T11:01:59;9.50;;;4.85;;
23684;SDS011;12020;51.384;6.908;2023-04-24T11:04:29;8.97;;;5.13;;
23684;SDS011;12020;51.384;6.908;2023-04-24T11:06:57;9.93;;;5.35;;
23684;SDS011;12020;51.384;6.908;2023-04-24T11:09:26;10.07;;;5.00;;
23684;SDS011;12020;51.384;6.908;2023-04-24T11:12:02;10.13;;;5.00;;
23684;SDS011;12020;51.384;6.908;2023-04-24T11:15:09;11.43;;;5.80;;
23684;SDS011;12020;51.384;6.908;2023-04-24T11:17:30;12.80;;;6.05;;
23684;SDS011;12020;51.384;6.908;2023-04-24T11:20:05;10.97;;;6.77;;
23684;SDS011;12020;51.384;6.908;2023-04-24T11:22:34;12.40;;;7.80;;
23684;SDS011;12020;51.384;6.908;2023-04-24T11:25:02;13.50;;;8.10;;
23684;SDS011;12020;51.384;6.908;2023-04-24T11:27:30;13.43;;;7.80;;
23684;SDS011;12020;51.384;6.908;2023-04-24T11:35:05;11.85;;;7.25;;
23684;SDS011;12020;51.384;6.908;2023-04-24T11:37:40;10.40;;;6.78;;
23684;SDS011;12020;51.384;6.908;2023-04-24T11:40:08;10.98;;;5.68;;
23684;SDS011;12020;51.384;6.908;2023-04-24T11:42:36;8.73;;;4.53;;
23684;SDS011;12020;51.384;6.908;2023-04-24T11:45:07;11.43;;;5.68;;
23684;SDS011;12020;51.384;6.908;2023-04-24T11:47:34;9.32;;;4.78;;
23684;SDS011;12020;51.384;6.908;2023-04-24T11:50:01;9.38;;;5.38;;
23684;SDS011;12020;51.384;6.908;2023-04-24T11:52:29;12.05;;;5.90;;
23684;SDS011;12020;51.384;6.908;2023-04-24T11:54:55;12.23;;;5.67;;
23684;SDS011;12020;51.384;6.908;2023-04-24T11:57:21;9.30;;;4.90;;
23684;SDS011;12020;51.384;6.908;2023-04-24T11:59:49;8.15;;;4.60;;
23684;SDS011;12020;51.384;6.908;2023-04-24T12:02:22;8.37;;;4.73;;
23684;SDS011;12020;51.384;6.908;2023-04-24T12:04:52;8.15;;;4.97;;
23684;SDS011;12020;51.384;6.908;2023-04-24T12:07:19;7.43;;;4.30;;
23684;SDS011;12020;51.384;6.908;2023-04-24T12:09:50;6.88;;;4.35;;
23684;SDS011;12020;51.384;6.908;2023-04-24T12:12:25;6.72;;;4.05;;
23684;SDS011;12020;51.384;6.908;2023-04-24T12:14:58;7.40;;;4.30;;
23684;SDS011;12020;51.384;6.908;2023-04-24T12:17:26;7.00;;;4.03;;
23684;SDS011;12020;51.384;6.908;2023-04-24T12:20:00;7.70;;;4.53;;
23684;SDS011;12020;51.384;6.908;2023-04-24T12:22:28;8.93;;;4.03;;
23684;SDS011;12020;51.384;6.908;2023-04-24T12:25:13;7.68;;;3.70;;
23684;SDS011;12020;51.384;6.908;2023-04-24T12:27:44;5.53;;;3.40;;
23684;SDS011;12020;51.384;6.908;2023-04-24T12:30:14;6.03;;;2.80;;
23684;SDS011;12020;51.384;6.908;2023-04-24T12:32:41;4.78;;;2.60;;
23684;SDS011;12020;51.384;6.908;2023-04-24T12:35:08;5.82;;;2.42;;
23684;SDS011;12020;51.384;6.908;2023-04-24T12:37:34;4.53;;;2.67;;
23684;SDS011;12020;51.384;6.908;2023-04-24T12:42:56;4.75;;;2.78;;
23684;SDS011;12020;51.384;6.908;2023-04-24T12:45:22;4.80;;;2.63;;
23684;SDS011;12020;51.384;6.908;2023-04-24T12:47:50;4.90;;;2.57;;
23684;SDS011;12020;51.384;6.908;2023-04-24T12:50:16;4.17;;;2.30;;
23684;SDS011;12020;51.384;6.908;2023-04-24T12:52:42;5.95;;;2.30;;
23684;SDS011;12020;51.384;6.908;2023-04-24T12:55:09;4.60;;;2.17;;
23684;SDS011;12020;51.384;6.908;2023-04-24T12:57:37;5.90;;;2.20;;
23684;SDS011;12020;51.384;6.908;2023-04-24T13:00:04;3.53;;;1.75;;
23684;SDS011;12020;51.384;6.908;2023-04-24T13:02:32;3.50;;;1.70;;
23684;SDS011;12020;51.384;6.908;2023-04-24T13:04:59;5.20;;;2.20;;
23684;SDS011;12020;51.384;6.908;2023-04-24T13:07:26;5.68;;;2.10;;
23684;SDS011;12020;51.384;6.908;2023-04-24T13:09:52;5.70;;;2.10;;
23684;SDS011;12020;51.384;6.908;2023-04-24T13:12:19;3.65;;;2.00;;
23684;SDS011;12020;51.384;6.908;2023-04-24T13:14:46;3.50;;;2.10;;
23684;SDS011;12020;51.384;6.908;2023-04-24T13:17:13;4.93;;;2.50;;
23684;SDS011;12020;51.384;6.908;2023-04-24T13:19:40;4.93;;;2.80;;
23684;SDS011;12020;51.384;6.908;2023-04-24T13:22:06;5.97;;;2.50;;
23684;SDS011;12020;51.384;6.908;2023-04-24T13:24:33;4.22;;;2.20;;
23684;SDS011;12020;51.384;6.908;2023-04-24T13:26:59;3.50;;;1.85;;
23684;SDS011;12020;51.384;6.908;2023-04-24T13:29:25;3.60;;;1.98;;
23684;SDS011;12020;51.384;6.908;2023-04-24T13:31:52;3.80;;;1.70;;
23684;SDS011;12020;51.384;6.908;2023-04-24T13:34:25;6.22;;;1.80;;
23684;SDS011;12020;51.384;6.908;2023-04-24T13:36:52;4.15;;;1.70;;
23684;SDS011;12020;51.384;6.908;2023-04-24T13:39:20;4.07;;;1.55;;
23684;SDS011;12020;51.384;6.908;2023-04-24T13:41:46;4.82;;;1.50;;
23684;SDS011;12020;51.384;6.908;2023-04-24T13:44:14;3.80;;;1.33;;
23684;SDS011;12020;51.384;6.908;2023-04-24T13:46:40;2.97;;;1.40;;
23684;SDS011;12020;51.384;6.908;2023-04-24T13:49:07;4.30;;;1.80;;
23684;SDS011;12020;51.384;6.908;2023-04-24T13:51:33;3.13;;;1.60;;
23684;SDS011;12020;51.384;6.908;2023-04-24T13:53:59;3.30;;;1.70;;
23684;SDS011;12020;51.384;6.908;2023-04-24T13:56:25;5.30;;;2.20;;
23684;SDS011;12020;51.384;6.908;2023-04-24T13:58:51;4.30;;;2.00;;
23684;SDS011;12020;51.384;6.908;2023-04-24T14:01:19;4.22;;;2.10;;
23684;SDS011;12020;51.384;6.908;2023-04-24T14:03:50;4.88;;;2.10;;
23684;SDS011;12020;51.384;6.908;2023-04-24T14:06:16;4.65;;;2.20;;
23684;SDS011;12020;51.384;6.908;2023-04-24T14:08:43;3.72;;;2.53;;
23684;SDS011;12020;51.384;6.908;2023-04-24T14:11:09;6.63;;;2.30;;
23684;SDS011;12020;51.384;6.908;2023-04-24T14:13:35;5.28;;;2.13;;
23684;SDS011;12020;51.384;6.908;2023-04-24T14:16:02;6.20;;;2.30;;
23684;SDS011;12020;51.384;6.908;2023-04-24T14:18:29;3.60;;;2.13;;
23684;SDS011;12020;51.384;6.908;2023-04-24T14:20:55;3.40;;;2.00;;
23684;SDS011;12020;51.384;6.908;2023-04-24T14:23:21;2.42;;;1.30;;
23684;SDS011;12020;51.384;6.908;2023-04-24T14:25:48;3.03;;;1.47;;
23684;SDS011;12020;51.384;6.908;2023-04-24T14:28:18;3.08;;;1.80;;
23684;SDS011;12020;51.384;6.908;2023-04-24T14:30:44;3.38;;;1.60;;
23684;SDS011;12020;51.384;6.908;2023-04-24T14:33:11;2.95;;;1.42;;
23684;SDS011;12020;51.384;6.908;2023-04-24T14:35:38;3.00;;;1.48;;
23684;SDS011;12020;51.384;6.908;2023-04-24T14:38:05;3.15;;;1.70;;
23684;SDS011;12020;51.384;6.908;2023-04-24T14:40:31;3.83;;;1.30;;
23684;SDS011;12020;51.384;6.908;2023-04-24T14:42:58;3.17;;;1.38;;
23684;SDS011;12020;51.384;6.908;2023-04-24T14:45:25;2.50;;;1.33;;
23684;SDS011;12020;51.384;6.908;2023-04-24T14:47:52;3.90;;;1.33;;
23684;SDS011;12020;51.384;6.908;2023-04-24T14:50:19;2.33;;;1.20;;
23684;SDS011;12020;51.384;6.908;2023-04-24T14:52:48;3.90;;;1.70;;
23684;SDS011;12020;51.384;6.908;2023-04-24T14:55:14;4.97;;;2.00;;
23684;SDS011;12020;51.384;6.908;2023-04-24T14:57:41;3.15;;;1.65;;
23684;SDS011;12020;51.384;6.908;2023-04-24T15:00:07;3.20;;;1.35;;